Time;durP1;ratioP1;P1;durP2;ratioP2;P2;SDS_P1;SDS_P2;PMS_P1;PMS_P2;Temp;Humidity;BMP_temperature;BMP_pressure;BME280_temperature;BME280_humidity;BME280_pressure;Samples;Min_cycle;Max_cycle;Signal;HPM_P1;HPM_P2
2021/07/01 00:01:50;;;;;;;0.95;0.60;;;;;;;;;;6938786;28;20137;-74
2021/07/01 00:05:13;;;;;;;0.40;0.40;;;;;;;;;;6938756;28;20045;-75
2021/07/01 00:08:33;;;;;;;1.02;0.55;;;;;;;;;;6938055;28;20518;-75
2021/07/01 00:11:56;;;;;;;0.30;0.30;;;;;;;;;;6938111;28;20430;-74
2021/07/01 00:15:19;;;;;;;0.88;0.60;;;;;;;;;;6919520;28;20084;-75
2021/07/01 00:18:40;;;;;;;5.57;0.50;;;;;;;;;;6943070;28;20075;-74
2021/07/01 00:22:00;;;;;;;2.53;0.43;;;;;;;;;;6942701;28;20041;-74
2021/07/01 00:25:21;;;;;;;2.13;0.60;;;;;;;;;;6942383;28;20084;-74
2021/07/01 00:28:42;;;;;;;1.85;0.52;;;;;;;;;;6938493;28;20511;-75
2021/07/01 00:32:02;;;;;;;1.50;0.55;;;;;;;;;;6940363;28;20136;-74
2021/07/01 00:35:23;;;;;;;1.20;0.80;;;;;;;;;;6940548;28;20054;-75
2021/07/01 00:38:43;;;;;;;0.30;0.30;;;;;;;;;;6935796;28;20041;-75
2021/07/01 00:42:04;;;;;;;0.57;0.40;;;;;;;;;;6942117;28;20451;-75
2021/07/01 00:45:25;;;;;;;1.63;0.60;;;;;;;;;;6936598;28;20041;-76
2021/07/01 00:48:45;;;;;;;0.85;0.70;;;;;;;;;;6924279;28;20064;-75
2021/07/01 00:52:06;;;;;;;0.40;0.40;;;;;;;;;;6942014;28;20049;-75
2021/07/01 00:55:26;;;;;;;0.70;0.50;;;;;;;;;;6924433;28;20088;-74
2021/07/01 00:58:50;;;;;;;0.65;0.32;;;;;;;;;;6941760;28;20045;-75
2021/07/01 01:02:10;;;;;;;1.48;0.50;;;;;;;;;;6924449;28;20049;-75
2021/07/01 01:05:31;;;;;;;1.55;0.50;;;;;;;;;;6942293;28;20055;-74
2021/07/01 01:08:53;;;;;;;2.05;0.50;;;;;;;;;;6941479;28;20054;-75
2021/07/01 01:12:13;;;;;;;2.10;0.60;;;;;;;;;;6923967;28;20060;-75
2021/07/01 01:15:34;;;;;;;0.40;0.40;;;;;;;;;;6941194;28;20057;-75
2021/07/01 01:18:54;;;;;;;1.25;0.80;;;;;;;;;;6941508;28;20080;-75
2021/07/01 01:22:15;;;;;;;0.77;0.40;;;;;;;;;;6941372;28;20439;-76
2021/07/01 01:26:01;;;;;;;2.53;0.60;;;;;;;;;;6985133;23;20144;31
2021/07/01 01:29:21;;;;;;;0.40;0.40;;;;;;;;;;6869493;28;20061;-79
2021/07/01 01:32:42;;;;;;;0.30;0.30;;;;;;;;;;6864333;28;20401;-79
2021/07/01 01:36:02;;;;;;;0.40;0.40;;;;;;;;;;6853935;28;20051;-79
2021/07/01 01:39:23;;;;;;;1.73;0.60;;;;;;;;;;6867108;28;20086;-79
2021/07/01 01:42:43;;;;;;;0.90;0.50;;;;;;;;;;6869114;28;20132;-79
2021/07/01 01:46:04;;;;;;;0.73;0.50;;;;;;;;;;6851410;28;20067;-79
2021/07/01 01:49:24;;;;;;;0.85;0.47;;;;;;;;;;6859449;28;20061;-78
2021/07/01 01:52:46;;;;;;;0.40;0.40;;;;;;;;;;6860128;28;20074;-78
2021/07/01 01:56:06;;;;;;;0.85;0.50;;;;;;;;;;6883370;28;20140;-79
2021/07/01 01:59:27;;;;;;;0.50;0.50;;;;;;;;;;6877491;28;20050;-79
2021/07/01 02:02:47;;;;;;;0.32;0.32;;;;;;;;;;6887043;28;20141;-79
2021/07/01 02:06:08;;;;;;;0.50;0.50;;;;;;;;;;6885694;28;20492;-79
2021/07/01 02:09:28;;;;;;;0.68;0.45;;;;;;;;;;6877475;28;20496;-78
2021/07/01 02:12:49;;;;;;;0.50;0.40;;;;;;;;;;6886049;28;20392;-78
2021/07/01 02:16:10;;;;;;;0.47;0.40;;;;;;;;;;6901390;28;20129;-78
2021/07/01 02:19:30;;;;;;;0.40;0.40;;;;;;;;;;6875975;28;20440;-78
2021/07/01 02:22:51;;;;;;;0.32;0.32;;;;;;;;;;6886312;28;20112;-79
2021/07/01 02:26:12;;;;;;;0.50;0.50;;;;;;;;;;6865375;28;20052;-79
2021/07/01 02:29:33;;;;;;;0.50;0.40;;;;;;;;;;6844906;28;20055;-78
2021/07/01 02:32:53;;;;;;;0.95;0.40;;;;;;;;;;6851331;28;20066;-79
2021/07/01 02:36:14;;;;;;;2.30;0.68;;;;;;;;;;6859121;28;20051;-78
2021/07/01 02:39:35;;;;;;;1.10;0.50;;;;;;;;;;6828353;28;20517;-78
2021/07/01 02:42:56;;;;;;;1.40;0.40;;;;;;;;;;6866004;28;20444;-78
2021/07/01 02:46:16;;;;;;;0.30;0.30;;;;;;;;;;6850140;28;20552;-79
2021/07/01 02:49:36;;;;;;;0.43;0.43;;;;;;;;;;6851500;28;20058;-79
2021/07/01 02:52:57;;;;;;;0.60;0.50;;;;;;;;;;6859454;28;20563;-79
2021/07/01 02:56:18;;;;;;;3.10;0.75;;;;;;;;;;6872819;28;20453;-81
2021/07/01 02:59:38;;;;;;;0.28;0.25;;;;;;;;;;6860284;28;20050;-79
2021/07/01 03:02:59;;;;;;;1.17;0.40;;;;;;;;;;6855459;28;20094;-79
2021/07/01 03:06:19;;;;;;;0.40;0.40;;;;;;;;;;6861491;28;20102;-79
2021/07/01 03:09:39;;;;;;;0.30;0.30;;;;;;;;;;6859517;28;20079;-79
2021/07/01 03:13:00;;;;;;;0.38;0.38;;;;;;;;;;6858446;28;20054;-79
2021/07/01 03:16:20;;;;;;;0.70;0.40;;;;;;;;;;6858544;28;20125;-79
2021/07/01 03:19:41;;;;;;;0.65;0.50;;;;;;;;;;6849864;28;20583;-78
2021/07/01 03:23:02;;;;;;;1.30;0.50;;;;;;;;;;6858616;28;20138;-78
2021/07/01 03:26:23;;;;;;;0.90;0.52;;;;;;;;;;6851047;28;20125;-78
2021/07/01 03:29:43;;;;;;;0.32;0.32;;;;;;;;;;6857850;28;20062;-79
2021/07/01 03:33:04;;;;;;;0.40;0.40;;;;;;;;;;6872629;28;20106;-79
2021/07/01 03:36:24;;;;;;;0.63;0.50;;;;;;;;;;6844992;28;20162;-78
2021/07/01 03:39:45;;;;;;;0.63;0.38;;;;;;;;;;6858101;28;20053;-78
2021/07/01 03:43:05;;;;;;;0.50;0.30;;;;;;;;;;6858139;28;20047;-78
2021/07/01 03:46:26;;;;;;;0.30;0.30;;;;;;;;;;6847759;28;20181;-78
2021/07/01 03:49:46;;;;;;;0.20;0.20;;;;;;;;;;6860450;28;20489;-78
2021/07/01 03:53:07;;;;;;;0.50;0.40;;;;;;;;;;6874050;28;20042;-79
2021/07/01 03:56:40;;;;;;;0.45;0.45;;;;;;;;;;6866643;28;20146;-78
2021/07/01 04:00:03;;;;;;;0.38;0.32;;;;;;;;;;6862934;28;20047;-79
2021/07/01 04:03:23;;;;;;;0.85;0.40;;;;;;;;;;6861533;28;20059;-79
2021/07/01 04:06:43;;;;;;;0.35;0.35;;;;;;;;;;6851602;28;20451;-79
2021/07/01 04:10:10;;;;;;;0.30;0.30;;;;;;;;;;6874168;28;20097;-78
2021/07/01 04:13:31;;;;;;;0.47;0.38;;;;;;;;;;6873489;28;20050;-79
2021/07/01 04:16:51;;;;;;;0.40;0.40;;;;;;;;;;6858012;28;20101;-80
2021/07/01 04:20:12;;;;;;;0.57;0.35;;;;;;;;;;6862015;28;20043;-78
2021/07/01 04:23:32;;;;;;;0.30;0.30;;;;;;;;;;6859239;28;20137;-79
2021/07/01 04:26:53;;;;;;;0.40;0.30;;;;;;;;;;6854645;28;20126;-78
2021/07/01 04:30:14;;;;;;;0.45;0.30;;;;;;;;;;6862671;28;20540;-78
2021/07/01 04:33:35;;;;;;;0.25;0.25;;;;;;;;;;6854705;28;20055;-77
2021/07/01 04:36:55;;;;;;;0.30;0.30;;;;;;;;;;6816624;28;20085;-78
2021/07/01 04:40:16;;;;;;;0.40;0.40;;;;;;;;;;6861598;28;20137;-78
2021/07/01 04:43:36;;;;;;;1.20;0.70;;;;;;;;;;6861129;28;20047;-81
2021/07/01 04:46:56;;;;;;;0.85;0.50;;;;;;;;;;6845571;28;20142;-78
2021/07/01 04:50:17;;;;;;;0.38;0.38;;;;;;;;;;6849680;28;20082;-78
2021/07/01 04:53:39;;;;;;;0.47;0.47;;;;;;;;;;6857373;28;20043;-80
2021/07/01 04:57:00;;;;;;;0.45;0.45;;;;;;;;;;6828945;28;20047;-79
2021/07/01 05:00:20;;;;;;;0.40;0.40;;;;;;;;;;6859010;28;20125;-80
2021/07/01 05:03:41;;;;;;;5.00;0.30;;;;;;;;;;6860796;28;20137;-80
2021/07/01 05:07:01;;;;;;;1.65;0.65;;;;;;;;;;6858653;28;20047;-78
2021/07/01 05:10:22;;;;;;;5.55;0.43;;;;;;;;;;6860975;28;20053;-78
2021/07/01 05:13:42;;;;;;;3.00;0.40;;;;;;;;;;6873594;28;20597;-78
2021/07/01 05:17:03;;;;;;;0.70;0.50;;;;;;;;;;6855088;28;20397;-78
2021/07/01 05:20:23;;;;;;;1.90;0.60;;;;;;;;;;6858933;28;20078;-79
2021/07/01 05:23:44;;;;;;;0.50;0.40;;;;;;;;;;6860541;28;20058;-79
2021/07/01 05:27:04;;;;;;;1.35;0.63;;;;;;;;;;6852649;28;20405;-78
2021/07/01 05:30:25;;;;;;;1.10;0.43;;;;;;;;;;6858978;28;20061;-79
2021/07/01 05:33:45;;;;;;;1.00;0.40;;;;;;;;;;6860681;28;20055;-78
2021/07/01 05:37:05;;;;;;;3.10;0.40;;;;;;;;;;6857092;28;20046;-79
2021/07/01 05:40:26;;;;;;;1.08;0.43;;;;;;;;;;6850511;28;20090;-78
2021/07/01 05:43:47;;;;;;;1.58;0.50;;;;;;;;;;6877399;28;20074;-77
2021/07/01 05:47:07;;;;;;;0.28;0.28;;;;;;;;;;6845199;28;20440;-77
2021/07/01 05:50:28;;;;;;;0.95;0.60;;;;;;;;;;6849323;28;20052;-79
2021/07/01 05:57:28;;;;;;;1.13;0.40;;;;;;;;;;6859755;28;20046;-77
2021/07/01 06:00:49;;;;;;;0.50;0.50;;;;;;;;;;6858574;28;20125;-77
2021/07/01 06:04:09;;;;;;;0.88;0.40;;;;;;;;;;6856932;28;20054;-78
2021/07/01 06:07:30;;;;;;;0.40;0.40;;;;;;;;;;6859826;28;20443;-79
2021/07/01 06:10:51;;;;;;;1.60;0.50;;;;;;;;;;6858433;28;20408;-80
2021/07/01 06:14:12;;;;;;;2.20;0.80;;;;;;;;;;6846497;28;20145;-80
2021/07/01 06:17:33;;;;;;;0.73;0.55;;;;;;;;;;6857178;28;20047;-79
2021/07/01 06:20:53;;;;;;;0.30;0.30;;;;;;;;;;6854235;28;20043;-80
2021/07/01 06:24:15;;;;;;;0.30;0.30;;;;;;;;;;6853918;28;20086;-80
2021/07/01 06:27:37;;;;;;;0.40;0.40;;;;;;;;;;6853745;28;20047;-78
2021/07/01 06:30:57;;;;;;;4.85;0.70;;;;;;;;;;6865554;28;21272;-80
2021/07/01 06:34:18;;;;;;;0.40;0.40;;;;;;;;;;6852515;28;21741;-82
2021/07/01 06:37:39;;;;;;;0.40;0.40;;;;;;;;;;6848371;28;20074;-79
2021/07/01 06:41:00;;;;;;;1.55;0.73;;;;;;;;;;6842432;28;20113;-79
2021/07/01 06:44:21;;;;;;;0.98;0.43;;;;;;;;;;6870186;28;20042;-80
2021/07/01 06:47:51;;;;;;;2.85;0.80;;;;;;;;;;6843718;28;20108;-80
2021/07/01 06:51:12;;;;;;;0.55;0.40;;;;;;;;;;6869095;28;20059;-78
2021/07/01 06:54:35;;;;;;;1.02;0.65;;;;;;;;;;6824261;28;20539;-79
2021/07/01 06:57:56;;;;;;;1.55;0.50;;;;;;;;;;6832927;28;20074;-81
2021/07/01 07:01:19;;;;;;;0.85;0.50;;;;;;;;;;6823187;28;20405;-80
2021/07/01 07:04:41;;;;;;;0.63;0.63;;;;;;;;;;6855724;28;20057;-80
2021/07/01 07:08:03;;;;;;;1.38;0.80;;;;;;;;;;6847641;28;20042;-80
2021/07/01 07:11:24;;;;;;;2.63;0.60;;;;;;;;;;6853076;28;20113;-80
2021/07/01 07:14:45;;;;;;;3.10;0.60;;;;;;;;;;6850065;28;20082;-79
2021/07/01 07:18:14;;;;;;;5.18;0.60;;;;;;;;;;6850856;28;20071;-79
2021/07/01 07:21:41;;;;;;;1.40;0.70;;;;;;;;;;6851389;28;20046;-79
2021/07/01 07:25:04;;;;;;;0.70;0.60;;;;;;;;;;6841656;28;20112;-78
2021/07/01 07:28:26;;;;;;;1.17;0.60;;;;;;;;;;6840927;28;20038;-78
2021/07/01 07:31:47;;;;;;;3.67;1.58;;;;;;;;;;6844480;28;20544;-81
2021/07/01 07:35:08;;;;;;;15.13;1.10;;;;;;;;;;6851107;28;20042;-81
2021/07/01 07:38:28;;;;;;;5.22;1.00;;;;;;;;;;6857281;28;20061;-80
2021/07/01 07:41:49;;;;;;;1.48;0.80;;;;;;;;;;6839845;28;20039;-80
2021/07/01 07:45:10;;;;;;;2.88;0.90;;;;;;;;;;6836523;28;20481;-81
2021/07/01 07:48:30;;;;;;;2.35;1.13;;;;;;;;;;6852538;28;20047;-79
2021/07/01 07:51:51;;;;;;;7.57;0.98;;;;;;;;;;6850805;28;20118;-80
2021/07/01 07:55:19;;;;;;;2.58;0.88;;;;;;;;;;6854014;28;20054;-80
2021/07/01 07:58:41;;;;;;;1.43;0.90;;;;;;;;;;6848378;28;20055;-79
2021/07/01 08:02:04;;;;;;;2.60;1.30;;;;;;;;;;6852641;28;20062;-79
2021/07/01 08:05:35;;;;;;;3.30;1.00;;;;;;;;;;6859822;28;20125;-79
2021/07/01 08:08:57;;;;;;;2.72;1.30;;;;;;;;;;6846202;28;20047;-79
2021/07/01 08:12:19;;;;;;;3.22;1.20;;;;;;;;;;6844912;28;20082;-80
2021/07/01 08:15:40;;;;;;;1.40;0.80;;;;;;;;;;6876665;28;20055;-80
2021/07/01 08:19:02;;;;;;;5.93;1.20;;;;;;;;;;6854290;28;20086;-79
2021/07/01 08:22:23;;;;;;;0.95;0.85;;;;;;;;;;6847257;28;20059;-78
2021/07/01 08:25:43;;;;;;;1.98;1.10;;;;;;;;;;6858382;28;20522;-77
2021/07/01 08:29:04;;;;;;;3.53;1.02;;;;;;;;;;6842167;28;20085;-77
2021/07/01 08:32:25;;;;;;;3.97;1.00;;;;;;;;;;6848947;28;20051;-78
2021/07/01 08:35:50;;;;;;;5.03;1.20;;;;;;;;;;6856945;28;20054;-78
2021/07/01 08:39:12;;;;;;;5.55;1.13;;;;;;;;;;6835087;28;20102;-79
2021/07/01 08:42:35;;;;;;;2.08;0.90;;;;;;;;;;6844088;28;20047;-79
2021/07/01 08:46:14;;;;;;;1.23;0.95;;;;;;;;;;6844119;28;20433;-79
2021/07/01 08:49:37;;;;;;;1.92;0.93;;;;;;;;;;6861154;28;20053;-80
2021/07/01 08:53:05;;;;;;;6.43;1.13;;;;;;;;;;6874603;28;20627;-80
2021/07/01 08:56:26;;;;;;;1.98;0.90;;;;;;;;;;6864104;28;20078;-79
2021/07/01 08:59:58;;;;;;;2.10;0.90;;;;;;;;;;6860095;28;20057;-78
2021/07/01 09:03:25;;;;;;;2.50;1.02;;;;;;;;;;6873353;28;20417;-80
2021/07/01 09:06:48;;;;;;;1.90;0.60;;;;;;;;;;6869204;28;20054;-78
2021/07/01 09:10:10;;;;;;;3.33;1.10;;;;;;;;;;6850495;28;20058;-78
2021/07/01 09:13:31;;;;;;;2.42;0.95;;;;;;;;;;6849426;28;20142;-78
2021/07/01 09:16:52;;;;;;;3.75;1.08;;;;;;;;;;6833617;28;20145;-79
2021/07/01 09:20:20;;;;;;;1.95;1.13;;;;;;;;;;6856921;28;20409;-79
2021/07/01 09:23:48;;;;;;;3.50;0.85;;;;;;;;;;6877357;28;20062;-79
2021/07/01 09:27:12;;;;;;;4.20;1.17;;;;;;;;;;6859493;28;20038;-80
2021/07/01 09:30:33;;;;;;;2.38;1.10;;;;;;;;;;6842499;28;20478;-78
2021/07/01 09:33:53;;;;;;;1.63;0.93;;;;;;;;;;6838412;28;20054;-79
2021/07/01 09:37:14;;;;;;;1.90;0.90;;;;;;;;;;6840340;28;20506;-79
2021/07/01 09:40:36;;;;;;;4.18;0.90;;;;;;;;;;6863183;28;20054;-80
2021/07/01 09:43:57;;;;;;;1.50;0.80;;;;;;;;;;6860386;28;20046;-79
2021/07/01 09:47:18;;;;;;;2.90;1.35;;;;;;;;;;6835869;28;20053;-80
2021/07/01 09:50:45;;;;;;;1.55;0.70;;;;;;;;;;6876909;28;20055;-79
2021/07/01 09:54:06;;;;;;;1.65;0.90;;;;;;;;;;6848827;28;20134;-79
2021/07/01 09:57:28;;;;;;;5.53;1.00;;;;;;;;;;6825430;28;20138;-79
2021/07/01 10:00:51;;;;;;;1.58;1.02;;;;;;;;;;6842279;28;20042;-81
2021/07/01 10:04:11;;;;;;;7.25;1.20;;;;;;;;;;6856163;28;20131;-79
2021/07/01 10:07:32;;;;;;;4.50;0.98;;;;;;;;;;6849673;28;20054;-82
2021/07/01 10:10:52;;;;;;;1.20;0.80;;;;;;;;;;6853044;28;20535;-79
2021/07/01 10:14:17;;;;;;;1.70;0.80;;;;;;;;;;6849746;28;20046;-80
2021/07/01 10:17:37;;;;;;;9.50;1.00;;;;;;;;;;6856923;28;20054;-82
2021/07/01 10:21:00;;;;;;;5.90;1.20;;;;;;;;;;6858497;28;20066;-81
2021/07/01 10:24:20;;;;;;;3.22;1.20;;;;;;;;;;6850563;28;20045;-82
2021/07/01 10:27:43;;;;;;;3.33;0.75;;;;;;;;;;6856129;28;20051;-82
2021/07/01 10:31:08;;;;;;;4.63;1.23;;;;;;;;;;6848133;28;20062;-82
2021/07/01 10:34:30;;;;;;;3.28;0.80;;;;;;;;;;6860031;28;20098;-82
2021/07/01 10:38:13;;;;;;;3.60;1.00;;;;;;;;;;6852567;28;20047;-81
2021/07/01 10:41:36;;;;;;;1.50;0.93;;;;;;;;;;6820993;28;20066;-80
2021/07/01 10:45:10;;;;;;;1.65;1.08;;;;;;;;;;6867809;28;20051;-81
2021/07/01 10:48:31;;;;;;;1.10;0.90;;;;;;;;;;6824165;28;20054;-81
2021/07/01 10:51:54;;;;;;;1.77;0.90;;;;;;;;;;6852463;28;20054;-81
2021/07/01 10:55:16;;;;;;;1.45;0.70;;;;;;;;;;6831762;28;20496;-82
2021/07/01 10:58:37;;;;;;;1.40;0.93;;;;;;;;;;6839618;28;20048;-82
2021/07/01 11:02:04;;;;;;;7.78;1.00;;;;;;;;;;6852618;28;20142;-81
2021/07/01 11:05:33;;;;;;;2.25;1.00;;;;;;;;;;6857287;28;20409;-81
2021/07/01 11:08:53;;;;;;;;;;;;;;;;;;6849285;28;20130;-81
2021/07/01 11:12:16;;;;;;;2.38;0.95;;;;;;;;;;6844022;28;19918;-81
2021/07/01 11:16:10;;;;;;;2.60;0.65;;;;;;;;;;6861558;28;20051;-81
2021/07/01 11:19:42;;;;;;;0.90;0.65;;;;;;;;;;6853342;28;20101;-81
2021/07/01 11:23:03;;;;;;;2.15;0.90;;;;;;;;;;6858180;28;20094;-80
2021/07/01 11:26:33;;;;;;;3.17;0.80;;;;;;;;;;6842296;28;20043;-82
2021/07/01 11:29:53;;;;;;;0.70;0.70;;;;;;;;;;6835300;28;20694;-81
2021/07/01 11:33:15;;;;;;;3.22;0.60;;;;;;;;;;6847789;28;20133;-81
2021/07/01 11:36:39;;;;;;;1.58;0.90;;;;;;;;;;6842183;28;20403;-80
2021/07/01 11:40:13;;;;;;;1.17;0.80;;;;;;;;;;6840973;28;20053;-81
2021/07/01 11:43:36;;;;;;;0.85;0.60;;;;;;;;;;6852800;28;20392;-78
2021/07/01 11:46:58;;;;;;;2.70;0.63;;;;;;;;;;6835159;28;20054;-79
2021/07/01 11:50:19;;;;;;;1.30;0.80;;;;;;;;;;6841153;28;20067;-79
2021/07/01 11:53:39;;;;;;;4.45;0.90;;;;;;;;;;6884310;28;20125;-80
2021/07/01 11:57:00;;;;;;;2.60;0.90;;;;;;;;;;6855487;28;20048;-80
2021/07/01 12:00:21;;;;;;;2.08;0.65;;;;;;;;;;6852925;28;20388;-83
2021/07/01 12:03:42;;;;;;;1.88;0.85;;;;;;;;;;6845708;28;21035;-81
2021/07/01 12:07:23;;;;;;;1.70;1.00;;;;;;;;;;6835328;28;20058;-79
2021/07/01 12:10:44;;;;;;;0.95;0.70;;;;;;;;;;6856668;28;20404;-80
2021/07/01 12:14:53;;;;;;;2.53;0.90;;;;;;;;;;6871730;28;20496;-78
2021/07/01 12:18:16;;;;;;;0.95;0.65;;;;;;;;;;6847618;28;20059;-80
2021/07/01 12:21:37;;;;;;;1.83;1.10;;;;;;;;;;6853529;28;20093;-83
2021/07/01 12:24:57;;;;;;;2.20;0.70;;;;;;;;;;6846602;28;20042;-81
2021/07/01 12:28:27;;;;;;;2.47;0.95;;;;;;;;;;6846584;28;20137;-79
2021/07/01 12:31:48;;;;;;;2.72;0.90;;;;;;;;;;6848845;28;20479;-80
2021/07/01 12:35:37;;;;;;;1.30;0.80;;;;;;;;;;6849284;28;20514;-79
2021/07/01 12:39:08;;;;;;;2.70;0.90;;;;;;;;;;6842243;28;20397;-79
2021/07/01 12:42:37;;;;;;;3.13;0.73;;;;;;;;;;6850361;28;20192;-79
2021/07/01 12:45:57;;;;;;;0.75;0.60;;;;;;;;;;6864170;28;20082;-78
2021/07/01 12:49:18;;;;;;;1.25;0.65;;;;;;;;;;6864601;28;20042;-78
2021/07/01 12:52:41;;;;;;;1.63;0.68;;;;;;;;;;6879094;28;20050;-80
2021/07/01 12:56:38;;;;;;;1.27;0.70;;;;;;;;;;6863662;28;20039;-79
2021/07/01 12:59:59;;;;;;;1.10;0.70;;;;;;;;;;6821124;28;20505;-78
2021/07/01 13:03:27;;;;;;;1.13;0.70;;;;;;;;;;6848662;28;20134;-80
2021/07/01 13:06:48;;;;;;;0.70;0.63;;;;;;;;;;6836519;28;20046;-79
2021/07/01 13:10:11;;;;;;;1.98;0.73;;;;;;;;;;6872554;28;20051;-81
2021/07/01 13:13:31;;;;;;;1.98;0.65;;;;;;;;;;6832686;28;20050;-78
2021/07/01 13:17:17;;;;;;;0.85;0.70;;;;;;;;;;6834531;28;20039;-80
2021/07/01 13:20:37;;;;;;;1.17;0.70;;;;;;;;;;6826972;28;20094;-79
2021/07/01 13:24:04;;;;;;;1.73;0.60;;;;;;;;;;6845732;28;20047;-79
2021/07/01 13:27:39;;;;;;;1.55;0.70;;;;;;;;;;7445467;22;20064;-88
2021/07/01 13:31:00;;;;;;;1.80;0.77;;;;;;;;;;6884942;28;20054;-91
2021/07/01 13:34:27;;;;;;;0.60;0.57;;;;;;;;;;6910891;28;20054;-91
2021/07/01 13:37:52;;;;;;;1.35;0.85;;;;;;;;;;6907203;28;20075;-91
2021/07/01 13:41:12;;;;;;;0.60;0.60;;;;;;;;;;6873030;28;20500;-92
2021/07/01 13:44:33;;;;;;;1.40;0.60;;;;;;;;;;6891867;28;20045;-92
2021/07/01 13:47:56;;;;;;;0.70;0.65;;;;;;;;;;6887209;28;20566;-92
2021/07/01 13:51:27;;;;;;;17.50;1.40;;;;;;;;;;6911393;28;20514;-92
2021/07/01 13:54:48;;;;;;;19.42;1.77;;;;;;;;;;6913835;28;20034;-89
2021/07/01 13:58:11;;;;;;;15.55;1.38;;;;;;;;;;6914839;28;20057;-88
2021/07/01 14:01:31;;;;;;;24.40;2.47;;;;;;;;;;6899085;28;20132;-91
2021/07/01 14:04:53;;;;;;;14.95;1.60;;;;;;;;;;6909241;28;20045;-90
2021/07/01 14:08:30;;;;;;;14.88;1.35;;;;;;;;;;6905089;28;20051;-90
2021/07/01 14:11:55;;;;;;;4.28;1.30;;;;;;;;;;6915440;28;20052;-92
2021/07/01 14:15:16;;;;;;;7.00;1.30;;;;;;;;;;6885470;28;20045;-90
2021/07/01 14:18:39;;;;;;;3.45;1.13;;;;;;;;;;6899078;28;20034;-90
2021/07/01 14:22:05;;;;;;;7.00;1.13;;;;;;;;;;6888912;28;20075;-89
2021/07/01 14:25:28;;;;;;;3.80;0.95;;;;;;;;;;6881120;28;21054;-89
2021/07/01 14:28:58;;;;;;;2.50;0.98;;;;;;;;;;6936079;28;20056;-87
2021/07/01 14:32:33;;;;;;;3.58;1.25;;;;;;;;;;6892134;28;20053;-90
2021/07/01 14:36:12;;;;;;;4.15;0.93;;;;;;;;;;6903950;28;20056;-89
2021/07/01 14:39:33;;;;;;;3.08;0.90;;;;;;;;;;6904779;28;20073;-88
2021/07/01 14:43:04;;;;;;;1.95;1.00;;;;;;;;;;6896643;28;20104;-88
2021/07/01 14:46:30;;;;;;;7.95;1.77;;;;;;;;;;6914155;28;20046;-87
2021/07/01 14:49:51;;;;;;;4.80;1.10;;;;;;;;;;6924580;28;20058;-86
2021/07/01 14:53:27;;;;;;;4.32;1.15;;;;;;;;;;6915911;28;20460;-86
2021/07/01 14:57:01;;;;;;;2.50;1.00;;;;;;;;;;6894347;28;20057;-88
2021/07/01 15:00:23;;;;;;;2.78;0.98;;;;;;;;;;6893195;28;20408;-89
2021/07/01 15:03:44;;;;;;;3.15;1.30;;;;;;;;;;6935193;28;20096;-88
2021/07/01 15:07:11;;;;;;;2.72;1.35;;;;;;;;;;6924557;28;20070;-89
2021/07/01 15:10:33;;;;;;;1.63;0.80;;;;;;;;;;6898586;28;20069;-89
2021/07/01 15:14:08;;;;;;;2.20;1.00;;;;;;;;;;6906108;28;20407;-92
2021/07/01 15:17:34;;;;;;;3.00;0.88;;;;;;;;;;6891086;28;20046;-88
2021/07/01 15:20:55;;;;;;;2.08;1.13;;;;;;;;;;6926702;28;20076;-90
2021/07/01 15:24:21;;;;;;;2.95;0.82;;;;;;;;;;6913683;28;20065;-90
2021/07/01 15:27:42;;;;;;;4.05;1.20;;;;;;;;;;6912508;28;20076;-90
2021/07/01 15:31:03;;;;;;;2.97;1.20;;;;;;;;;;6901200;28;20091;-90
2021/07/01 15:34:24;;;;;;;1.73;1.00;;;;;;;;;;6899510;28;20053;-90
2021/07/01 15:37:45;;;;;;;3.53;0.90;;;;;;;;;;6915145;28;21208;-90
2021/07/01 15:41:05;;;;;;;1.48;0.85;;;;;;;;;;6916278;28;20491;-90
2021/07/01 15:44:26;;;;;;;3.03;1.40;;;;;;;;;;6922796;28;20072;-90
2021/07/01 15:47:48;;;;;;;2.08;1.15;;;;;;;;;;6937117;28;20460;-90
2021/07/01 15:51:09;;;;;;;1.33;0.85;;;;;;;;;;6911804;28;20049;-91
2021/07/01 15:54:30;;;;;;;3.90;1.20;;;;;;;;;;6899370;28;20052;-90
2021/07/01 15:57:51;;;;;;;2.38;0.80;;;;;;;;;;6909931;28;20056;-89
2021/07/01 16:01:11;;;;;;;4.40;0.90;;;;;;;;;;6907695;28;20047;-89
2021/07/01 16:04:35;;;;;;;1.98;0.90;;;;;;;;;;6920645;28;20049;-90
2021/07/01 16:07:55;;;;;;;3.40;0.93;;;;;;;;;;6924257;28;20049;-89
2021/07/01 16:11:16;;;;;;;4.00;1.00;;;;;;;;;;6892203;28;20038;-88
2021/07/01 16:14:37;;;;;;;3.67;1.00;;;;;;;;;;6923795;28;20046;-89
2021/07/01 16:17:58;;;;;;;3.95;1.00;;;;;;;;;;6925139;28;20075;-88
2021/07/01 16:21:20;;;;;;;3.00;0.90;;;;;;;;;;6919791;28;20125;-88
2021/07/01 16:24:41;;;;;;;2.92;1.02;;;;;;;;;;6920079;28;20141;-88
2021/07/01 16:28:03;;;;;;;2.85;1.20;;;;;;;;;;6910879;28;20038;-88
2021/07/01 16:31:27;;;;;;;2.00;0.90;;;;;;;;;;6912738;28;20089;-86
2021/07/01 16:34:47;;;;;;;1.63;0.98;;;;;;;;;;6907109;28;20053;-87
2021/07/01 16:38:08;;;;;;;3.05;1.02;;;;;;;;;;6921727;28;20073;-88
2021/07/01 16:41:28;;;;;;;1.80;0.98;;;;;;;;;;6901029;28;20084;-88
2021/07/01 16:44:48;;;;;;;2.10;1.13;;;;;;;;;;6924719;28;20066;-88
2021/07/01 16:48:13;;;;;;;1.30;0.90;;;;;;;;;;6911459;28;20136;-86
2021/07/01 16:51:39;;;;;;;2.03;0.90;;;;;;;;;;6916668;28;20109;-86
2021/07/01 16:55:01;;;;;;;0.93;0.80;;;;;;;;;;6920761;28;20088;-88
2021/07/01 16:58:22;;;;;;;2.95;0.90;;;;;;;;;;6918153;28;20197;-86
2021/07/01 17:01:43;;;;;;;3.30;1.10;;;;;;;;;;6924138;28;20061;-86
2021/07/01 17:05:04;;;;;;;1.88;1.10;;;;;;;;;;6933728;28;20054;-86
2021/07/01 17:08:28;;;;;;;0.95;0.80;;;;;;;;;;6931101;28;20033;-86
2021/07/01 17:11:50;;;;;;;1.90;0.75;;;;;;;;;;6900381;28;20057;-86
2021/07/01 17:15:12;;;;;;;2.60;1.23;;;;;;;;;;6925585;28;20077;-85
2021/07/01 17:18:36;;;;;;;2.40;0.82;;;;;;;;;;6928458;28;20034;-85
2021/07/01 17:21:59;;;;;;;2.85;0.93;;;;;;;;;;6914045;28;20088;-86
2021/07/01 17:25:20;;;;;;;1.75;1.00;;;;;;;;;;6919451;28;20045;-86
2021/07/01 17:28:41;;;;;;;5.43;0.95;;;;;;;;;;6933336;28;20061;-86
2021/07/01 17:32:01;;;;;;;1.25;0.80;;;;;;;;;;6902041;28;20050;-86
2021/07/01 17:35:22;;;;;;;1.95;0.93;;;;;;;;;;6918334;28;20166;-86
2021/07/01 17:38:43;;;;;;;2.50;1.02;;;;;;;;;;6920808;28;20404;-87
2021/07/01 17:42:03;;;;;;;4.70;0.85;;;;;;;;;;6898085;28;20135;-87
2021/07/01 17:45:24;;;;;;;3.28;1.00;;;;;;;;;;6925137;28;20077;-87
2021/07/01 17:48:44;;;;;;;2.63;0.80;;;;;;;;;;6943654;28;20403;-87
2021/07/01 17:52:07;;;;;;;2.13;0.80;;;;;;;;;;6941734;28;20077;-87
2021/07/01 17:55:28;;;;;;;1.58;0.85;;;;;;;;;;6928305;28;20046;-86
2021/07/01 17:58:48;;;;;;;2.78;0.90;;;;;;;;;;6926155;28;20060;-88
2021/07/01 18:02:12;;;;;;;4.25;0.90;;;;;;;;;;6931857;28;20146;-85
2021/07/01 18:05:32;;;;;;;1.38;0.80;;;;;;;;;;6914053;28;20125;-85
2021/07/01 18:08:54;;;;;;;0.98;0.80;;;;;;;;;;6947207;28;20045;-87
2021/07/01 18:12:15;;;;;;;2.47;1.13;;;;;;;;;;6939064;28;20057;-86
2021/07/01 18:15:36;;;;;;;1.55;0.88;;;;;;;;;;6913223;28;20443;-85
2021/07/01 18:18:57;;;;;;;1.65;0.98;;;;;;;;;;6907541;28;20046;-90
2021/07/01 18:22:17;;;;;;;1.85;1.05;;;;;;;;;;6900936;28;20395;-90
2021/07/01 18:25:38;;;;;;;3.65;0.90;;;;;;;;;;6919725;28;20054;-90
2021/07/01 18:28:58;;;;;;;2.72;0.98;;;;;;;;;;6917647;28;20165;-90
2021/07/01 18:32:19;;;;;;;2.53;1.00;;;;;;;;;;6933338;28;20049;-89
2021/07/01 18:35:39;;;;;;;2.67;1.10;;;;;;;;;;6937685;28;20144;-90
2021/07/01 18:39:00;;;;;;;2.30;1.20;;;;;;;;;;6936840;28;20057;-87
2021/07/01 18:42:20;;;;;;;1.58;1.13;;;;;;;;;;6929921;28;20124;-87
2021/07/01 18:45:45;;;;;;;5.63;0.93;;;;;;;;;;6948064;28;20450;-86
2021/07/01 18:49:06;;;;;;;3.92;1.10;;;;;;;;;;6934425;28;20069;-88
2021/07/01 18:52:26;;;;;;;3.33;1.02;;;;;;;;;;6920880;28;20054;-88
2021/07/01 18:55:46;;;;;;;4.93;1.55;;;;;;;;;;6903417;28;20092;-85
2021/07/01 18:59:09;;;;;;;4.60;1.40;;;;;;;;;;6917514;28;20052;-86
2021/07/01 19:02:29;;;;;;;4.88;1.45;;;;;;;;;;6912470;28;20042;-84
2021/07/01 19:05:49;;;;;;;11.05;1.40;;;;;;;;;;6892341;28;20463;-84
2021/07/01 19:09:12;;;;;;;7.10;1.23;;;;;;;;;;6925666;28;20117;-85
2021/07/01 19:12:32;;;;;;;7.43;1.30;;;;;;;;;;6925138;28;20137;-86
2021/07/01 19:15:53;;;;;;;7.25;1.38;;;;;;;;;;6935562;28;20054;-83
2021/07/01 19:19:13;;;;;;;4.40;1.55;;;;;;;;;;6926682;28;20128;-83
2021/07/01 19:22:34;;;;;;;4.07;1.42;;;;;;;;;;6938256;28;21525;-83
2021/07/01 19:25:54;;;;;;;2.83;1.25;;;;;;;;;;6938265;28;20057;-84
2021/07/01 19:29:15;;;;;;;3.65;1.42;;;;;;;;;;6942725;28;20048;-83
2021/07/01 19:32:38;;;;;;;6.00;1.45;;;;;;;;;;6916402;28;20140;-83
2021/07/01 19:35:59;;;;;;;4.18;1.60;;;;;;;;;;6944383;28;20065;-85
2021/07/01 19:39:20;;;;;;;3.63;1.35;;;;;;;;;;6945330;28;20049;-85
2021/07/01 19:42:43;;;;;;;3.63;1.13;;;;;;;;;;6942427;28;20049;-86
2021/07/01 19:46:06;;;;;;;2.95;1.13;;;;;;;;;;6938428;28;20060;-87
2021/07/01 19:49:26;;;;;;;6.50;1.52;;;;;;;;;;6939925;28;20052;-87
2021/07/01 19:52:47;;;;;;;4.13;1.42;;;;;;;;;;6928462;28;20041;-87
2021/07/01 19:56:08;;;;;;;2.45;1.20;;;;;;;;;;6927349;28;20557;-87
2021/07/01 19:59:31;;;;;;;4.32;1.20;;;;;;;;;;6898592;28;20056;-86
2021/07/01 20:02:51;;;;;;;2.75;1.13;;;;;;;;;;6918511;28;20042;-87
2021/07/01 20:06:13;;;;;;;4.38;1.50;;;;;;;;;;6925224;28;20041;-87
2021/07/01 20:09:35;;;;;;;7.50;1.33;;;;;;;;;;6920193;28;20096;-88
2021/07/01 20:12:55;;;;;;;3.78;1.33;;;;;;;;;;6923261;28;20377;-87
2021/07/01 20:16:15;;;;;;;11.18;1.90;;;;;;;;;;6922704;28;20495;-89
2021/07/01 20:19:36;;;;;;;7.20;2.30;;;;;;;;;;6898452;28;20045;-89